createdAt,value
2023-01-05T11:58:24.770Z,65.30
2023-01-05T11:58:59.516Z,65.70
2023-01-05T11:59:37.792Z,65.70
2023-01-05T12:00:25.379Z,65.70
2023-01-05T12:01:21.890Z,65.60
2023-01-05T12:02:12.643Z,65.70
2023-01-05T12:03:16.925Z,65.60
2023-01-05T12:04:16.299Z,65.50
2023-01-05T12:05:12.783Z,65.50
2023-01-05T12:05:51.904Z,65.50
2023-01-05T12:06:37.651Z,65.40
2023-01-05T12:07:34.368Z,65.30
2023-01-05T12:08:14.260Z,65.40
2023-01-05T12:08:57.942Z,65.40
2023-01-05T12:09:35.785Z,65.30
2023-01-05T12:10:50.048Z,65.20
2023-01-05T12:11:24.387Z,65.10
2023-01-05T12:12:21.637Z,65.00
2023-01-05T12:13:03.348Z,64.90
2023-01-05T12:13:51.553Z,64.80
2023-01-05T12:14:43.343Z,64.90
2023-01-05T12:15:44.427Z,64.80
2023-01-05T12:16:36.399Z,64.60
2023-01-05T12:17:16.677Z,64.70
2023-01-05T12:17:55.022Z,64.70
2023-01-05T12:19:20.752Z,64.70
2023-01-05T12:20:32.537Z,64.70
2023-01-05T12:21:16.570Z,64.50
2023-01-05T12:22:02.868Z,64.60
2023-01-05T12:23:05.056Z,64.60
2023-01-05T12:24:16.077Z,64.50
2023-01-05T12:25:02.064Z,64.50
2023-01-05T12:25:54.254Z,64.50
2023-01-05T12:26:30.874Z,64.50
2023-01-05T12:27:18.020Z,64.40
2023-01-05T12:28:10.094Z,64.30
2023-01-05T12:30:02.117Z,64.30
2023-01-05T12:34:17.768Z,64.40
2023-01-05T13:43:33.265Z,66.50
2023-01-05T13:44:49.369Z,66.90
2023-01-05T13:45:50.843Z,67.00
2023-01-05T13:47:15.407Z,67.00
2023-01-05T13:48:13.059Z,67.10
2023-01-05T13:49:21.818Z,67.20
2023-01-05T13:50:33.470Z,67.10
2023-01-05T13:51:27.139Z,67.10
2023-01-05T13:52:03.947Z,67.00
2023-01-05T13:52:52.943Z,67.00
2023-01-05T13:53:30.212Z,67.00
2023-01-05T13:54:13.263Z,67.00
2023-01-05T13:55:01.305Z,67.60
2023-01-05T13:55:44.348Z,67.20
2023-01-05T13:56:23.439Z,67.40
2023-01-05T13:56:58.185Z,67.50
2023-01-05T13:57:40.678Z,67.50
2023-01-05T13:58:38.739Z,67.60
2023-01-05T13:59:34.746Z,67.60
2023-01-05T14:00:22.252Z,67.60
2023-01-05T14:00:58.667Z,67.70
2023-01-05T14:01:38.278Z,67.70
2023-01-05T14:02:31.808Z,67.70
2023-01-05T14:03:14.963Z,67.60
2023-01-05T14:03:53.351Z,67.60
2023-01-05T14:04:32.683Z,67.80
2023-01-05T14:05:20.129Z,68.40
2023-01-05T14:05:56.919Z,67.90
2023-01-05T14:06:35.068Z,67.90
2023-01-05T14:07:16.797Z,67.90
2023-01-05T14:07:52.302Z,68.00
2023-01-05T14:08:29.090Z,68.00
2023-01-05T14:09:08.688Z,68.00
2023-01-05T14:09:46.640Z,68.00
2023-01-05T14:10:26.117Z,68.00
2023-01-05T14:11:12.532Z,68.00
2023-01-05T14:12:20.309Z,68.00
2023-01-05T14:12:55.514Z,68.50
2023-01-05T14:13:51.444Z,68.00
2023-01-05T14:15:09.241Z,67.80
2023-01-05T14:15:44.274Z,67.80
2023-01-05T14:16:49.260Z,67.80
2023-01-05T14:17:53.460Z,67.80
2023-01-05T14:18:55.191Z,67.80
2023-01-05T14:19:53.882Z,67.90
2023-01-05T14:20:34.448Z,67.90
2023-01-05T14:21:12.734Z,67.90
2023-01-05T14:22:01.985Z,68.50
2023-01-05T14:22:39.025Z,67.90
2023-01-05T14:23:46.552Z,68.10
2023-01-05T14:24:52.116Z,68.20
2023-01-05T14:25:49.511Z,68.30
2023-01-05T14:27:03.560Z,68.30
2023-01-05T14:28:17.125Z,68.30
2023-01-05T14:28:52.507Z,68.40
2023-01-05T14:30:02.850Z,68.50
2023-01-05T14:30:38.045Z,68.60
2023-01-05T14:31:49.828Z,68.60
2023-01-05T14:32:28.042Z,68.70
2023-01-05T14:33:08.487Z,68.70
2023-01-05T14:33:49.336Z,68.60
2023-01-05T14:34:25.773Z,68.60
2023-01-05T14:35:05.502Z,68.60
2023-01-05T14:35:41.022Z,68.60
2023-01-05T14:37:24.886Z,68.80
2023-01-05T14:38:02.756Z,68.80
2023-01-05T14:38:38.526Z,68.90
2023-01-05T14:39:30.066Z,69.00
2023-01-05T14:40:16.728Z,69.10
2023-01-05T14:40:56.265Z,69.20
2023-01-05T14:41:33.210Z,69.20
2023-01-05T14:42:16.508Z,69.30
2023-01-05T14:42:52.649Z,69.20
2023-01-05T14:43:31.921Z,69.10
2023-01-05T14:44:09.123Z,69.20
2023-01-05T14:44:47.467Z,69.10
2023-01-05T14:45:28.649Z,69.10
2023-01-05T14:46:05.761Z,69.00
2023-01-05T14:46:49.087Z,69.00
2023-01-05T14:47:36.586Z,69.10
2023-01-05T14:48:31.304Z,69.20
2023-01-05T14:49:08.543Z,69.30
2023-01-05T14:49:45.494Z,69.30
2023-01-05T14:50:33.282Z,69.20
2023-01-05T14:51:24.406Z,69.30
2023-01-05T14:52:00.590Z,69.20
2023-01-05T14:52:58.511Z,69.20
2023-01-05T14:53:43.388Z,69.10
2023-01-05T14:54:36.585Z,69.00
2023-01-05T14:55:29.901Z,68.90
2023-01-05T14:56:21.782Z,68.90
2023-01-05T14:57:31.076Z,68.80
2023-01-05T14:58:07.717Z,68.70
2023-01-05T14:59:03.132Z,68.50
2023-01-05T14:59:38.784Z,68.50
2023-01-05T15:00:16.732Z,68.60
2023-01-05T15:00:58.535Z,68.60
2023-01-05T15:02:24.031Z,68.60
2023-01-05T15:03:09.245Z,68.50
2023-01-05T15:03:50.771Z,69.10
2023-01-05T15:04:29.353Z,68.40
2023-01-05T15:05:11.048Z,68.30
2023-01-05T15:05:52.462Z,68.30
2023-01-05T15:06:36.826Z,68.10
2023-01-05T15:07:26.214Z,68.20
2023-01-05T15:08:17.260Z,68.10
2023-01-05T15:09:29.713Z,68.20
2023-01-05T15:10:24.796Z,68.30
2023-01-05T15:11:22.737Z,68.10
2023-01-05T15:12:47.641Z,68.00
2023-01-05T15:14:09.072Z,68.10
2023-01-05T15:15:20.971Z,68.10
2023-01-05T15:16:03.364Z,68.40
2023-01-05T15:17:07.851Z,68.50
2023-01-05T15:18:20.884Z,68.60
2023-01-05T15:19:18.860Z,68.60
2023-01-05T15:20:09.480Z,68.80
2023-01-05T19:07:16.233Z,65.80
2023-01-05T19:07:53.339Z,66.20
2023-01-05T19:08:29.446Z,66.30
2023-01-05T19:09:05.655Z,66.30
2023-01-05T19:09:40.767Z,66.30
2023-01-05T19:10:16.177Z,66.30
2023-01-05T19:10:51.148Z,66.30
2023-01-05T19:11:27.158Z,66.20
2023-01-05T19:12:02.217Z,66.10
2023-01-05T19:12:36.022Z,66.00
2023-01-05T19:13:09.818Z,65.90
2023-01-05T19:13:47.664Z,66.00
2023-01-05T19:14:22.459Z,66.00
2023-01-05T19:14:58.636Z,66.00
2023-01-05T19:15:33.706Z,66.10
2023-01-05T19:16:08.597Z,66.10
2023-01-05T19:16:43.163Z,66.10
2023-01-05T19:17:17.081Z,66.10
2023-01-05T19:17:53.472Z,66.00
2023-01-05T19:18:27.240Z,66.00
2023-01-05T19:19:05.538Z,66.00
2023-01-05T19:19:38.913Z,65.90
2023-01-05T19:20:14.264Z,65.90
2023-01-05T19:20:56.715Z,65.80
2023-01-05T19:21:32.531Z,65.80
2023-01-05T19:22:06.491Z,65.70
2023-01-05T19:22:42.336Z,65.60
2023-01-05T19:23:17.207Z,65.60
2023-01-05T19:23:57.199Z,65.50
2023-01-05T19:24:32.528Z,65.50
2023-01-05T19:25:09.213Z,65.50
2023-01-05T19:25:43.726Z,65.50
2023-01-05T19:26:19.824Z,65.50
2023-01-05T19:26:53.884Z,65.40
2023-01-05T19:27:28.930Z,65.30
2023-01-05T19:28:02.620Z,65.30
2023-01-05T19:28:38.475Z,65.30
2023-01-05T19:29:12.904Z,65.30
2023-01-05T19:29:48.705Z,65.30
2023-01-05T19:30:24.157Z,65.40
2023-01-05T19:31:04.327Z,65.40
2023-01-05T19:31:39.749Z,65.50
2023-01-05T19:32:14.367Z,65.40
2023-01-05T19:32:50.014Z,65.40
2023-01-05T19:33:23.873Z,65.40
2023-01-05T19:34:03.733Z,65.40
2023-01-05T19:34:39.102Z,65.40
2023-01-05T19:35:15.347Z,65.40
2023-01-05T19:35:50.209Z,65.40
2023-01-05T19:36:26.293Z,65.50
2023-01-05T19:37:04.077Z,65.30
2023-01-05T19:37:39.203Z,65.30
2023-01-05T19:38:14.404Z,65.20
2023-01-05T19:38:50.631Z,65.30
2023-01-05T19:39:24.860Z,65.20
2023-01-05T19:40:03.025Z,65.20
2023-01-05T19:40:38.112Z,65.20
2023-01-05T19:41:19.670Z,65.10
2023-01-05T19:41:54.819Z,65.20
2023-01-05T19:42:30.396Z,65.30
2023-01-05T19:43:03.735Z,65.10
2023-01-05T19:43:41.760Z,65.10
2023-01-05T19:44:18.711Z,65.10
2023-01-05T19:44:52.790Z,65.20
2023-01-05T19:45:28.183Z,65.30
2023-01-05T19:46:02.596Z,65.30
2023-01-05T19:46:36.929Z,65.20
2023-01-05T19:47:12.776Z,65.20
2023-01-05T19:47:46.633Z,65.30
2023-01-05T19:48:20.918Z,65.40
2023-01-05T19:49:00.280Z,65.50
2023-01-05T19:49:35.432Z,65.50
2023-01-05T19:50:11.928Z,65.50
2023-01-05T19:50:56.178Z,65.60
2023-01-05T19:51:33.663Z,65.50
2023-01-05T19:52:07.979Z,65.50
2023-01-05T19:52:41.984Z,65.50
2023-01-05T19:53:17.106Z,65.30
2023-01-05T19:53:57.326Z,65.30
2023-01-05T19:54:31.887Z,65.10
2023-01-05T19:55:07.644Z,65.00
2023-01-05T19:55:42.625Z,64.90
2023-01-05T19:56:18.061Z,64.80
2023-01-05T19:56:53.017Z,64.70
2023-01-05T22:32:56.532Z,59.30
2023-01-05T22:33:32.042Z,59.70
2023-01-05T22:34:07.880Z,59.70
2023-01-05T22:34:45.034Z,59.70
2023-01-05T22:35:20.363Z,59.60
2023-01-05T22:35:54.671Z,59.60
2023-01-05T22:36:30.668Z,59.50
2023-01-05T22:37:04.623Z,59.60
2023-01-05T22:37:38.976Z,59.50
2023-01-05T22:38:13.900Z,59.50
2023-01-05T22:38:50.452Z,59.50
2023-01-05T22:39:25.659Z,59.50
2023-01-05T22:40:01.043Z,59.40
2023-01-05T22:40:34.639Z,59.30
2023-01-05T22:41:12.924Z,59.20
2023-01-05T22:41:47.141Z,59.40
2023-01-05T22:42:20.549Z,59.40
2023-01-05T22:42:55.028Z,59.50
2023-01-05T22:43:30.681Z,59.60
2023-01-05T22:44:06.733Z,59.60
2023-01-05T22:44:41.658Z,59.70
2023-01-05T22:45:18.005Z,59.70
2023-01-05T22:45:52.766Z,59.70
2023-01-05T22:46:26.864Z,59.70
2023-01-05T22:47:02.284Z,59.80
2023-01-05T22:47:35.730Z,59.80
2023-01-05T22:48:10.140Z,60.00
2023-01-05T22:48:47.441Z,59.90
2023-01-05T22:49:22.356Z,59.90
2023-01-05T22:49:57.404Z,60.00
2023-01-05T22:50:34.097Z,60.00
2023-01-05T22:51:11.155Z,60.00
2023-01-05T22:51:47.019Z,60.00
2023-01-05T22:52:23.041Z,60.00
2023-01-05T22:52:56.825Z,60.10
2023-01-05T22:53:31.511Z,60.10
2023-01-05T22:54:07.756Z,60.10
2023-01-05T22:54:41.379Z,60.20
2023-01-05T22:55:16.810Z,60.30
2023-01-05T22:55:51.218Z,60.30
2023-01-05T22:56:26.455Z,60.30
2023-01-05T22:57:00.593Z,60.30
2023-01-05T22:57:36.067Z,60.40
2023-01-05T22:58:10.999Z,60.40
2023-01-05T22:58:44.488Z,60.50
2023-01-05T22:59:19.500Z,60.40
2023-01-05T22:59:55.123Z,60.40
2023-01-05T23:00:29.678Z,60.50
2023-01-05T23:01:10.515Z,60.50
2023-01-05T23:01:46.131Z,60.50
2023-01-05T23:02:21.057Z,60.50
2023-01-05T23:02:56.321Z,60.50
2023-01-05T23:03:31.044Z,60.30
2023-01-05T23:04:07.964Z,60.30
2023-01-05T23:04:41.812Z,60.30
2023-01-05T23:05:17.910Z,60.10
2023-01-05T23:05:53.854Z,60.10
2023-01-05T23:06:28.867Z,60.10
2023-01-05T23:07:05.058Z,60.00
2023-01-05T23:07:39.984Z,60.00
2023-01-05T23:08:13.425Z,60.10
2023-01-05T23:08:49.871Z,60.10
2023-01-05T23:09:24.028Z,59.90
2023-01-05T23:09:59.575Z,59.90
2023-01-05T23:10:36.618Z,59.80
2023-01-05T23:11:13.319Z,59.80
2023-01-05T23:11:49.507Z,59.80
2023-01-05T23:12:22.534Z,59.90
2023-01-05T23:12:56.934Z,59.90
2023-01-05T23:13:33.425Z,59.80
2023-01-05T23:14:09.414Z,59.90
2023-01-05T23:17:37.981Z,59.60
2023-01-05T23:18:11.724Z,60.00
2023-01-05T23:18:45.137Z,60.00
2023-01-05T23:19:21.387Z,60.00
2023-01-05T23:19:56.115Z,60.00
2023-01-05T23:20:31.167Z,60.10
2023-01-05T23:21:07.616Z,60.10
2023-01-05T23:21:43.153Z,60.10
2023-01-05T23:22:17.182Z,60.20
2023-01-05T23:22:51.286Z,60.30
2023-01-05T23:23:26.354Z,60.30
2023-01-05T23:24:00.209Z,60.30
2023-01-05T23:24:35.836Z,60.40
2023-01-05T23:25:11.751Z,60.30
2023-01-05T23:25:47.970Z,60.30
2023-01-05T23:26:24.071Z,60.30
2023-01-05T23:26:58.403Z,60.30
2023-01-05T23:27:32.724Z,60.30
2023-01-05T23:28:08.764Z,60.30
2023-01-05T23:28:43.483Z,60.40
2023-01-05T23:29:17.324Z,60.50
2023-01-05T23:29:51.166Z,60.50
2023-01-05T23:30:25.479Z,60.50
2023-01-05T23:31:01.009Z,60.40
2023-01-05T23:31:35.703Z,60.40
2023-01-05T23:32:11.016Z,60.50
2023-01-05T23:32:44.655Z,60.50
2023-01-05T23:33:21.320Z,60.50
2023-01-05T23:33:56.099Z,60.40
2023-01-05T23:34:29.434Z,60.50
2023-01-05T23:35:03.874Z,60.60
2023-01-05T23:35:37.208Z,60.60
2023-01-05T23:36:12.680Z,60.70
2023-01-05T23:36:48.236Z,60.70
2023-01-05T23:37:23.245Z,60.70
2023-01-05T23:37:57.243Z,60.70
2023-01-05T23:38:32.970Z,60.60
2023-01-05T23:59:42.614Z,59.90
